ADDS METAR Data INFO
IDs: Format: Raw Decoded Include TAF

Data at: 1010 UTC 12 Dec 2017

KRCM 120955Z AUTO 32012G18KT 10SM CLR M02/M07 A3029 RMK AO2
KRCM 120935Z AUTO 32011G18KT 10SM CLR M02/M07 A3029 RMK AO2
KRCM 120835Z AUTO 31010KT 10SM CLR M01/M06 A3027 RMK AO2
KRCM 120815Z AUTO 31011G18KT 10SM CLR M01/M06 A3026 RMK AO2
KRCM 120755Z AUTO 31009KT 10SM CLR 00/M05 A3025 RMK AO2
KRCM 120735Z AUTO 32009KT 10SM CLR 00/M05 A3025 RMK AO2
KRCM 120715Z AUTO 32010G17KT 10SM CLR 00/M05 A3025 RMK AO2
KRCM 120655Z AUTO 32010G15KT 10SM CLR 00/M05 A3024 RMK AO2
KRCM 120635Z AUTO 32009G20KT 10SM CLR 01/M05 A3024 RMK AO2
KRCM 120615Z AUTO 32012G18KT 10SM CLR 01/M05 A3024 RMK AO2
KRCM 120555Z AUTO 32013G28KT 10SM CLR 01/M05 A3023 RMK AO2
KRCM 120535Z AUTO 32016G28KT 10SM CLR 02/M05 A3022 RMK AO2
KRCM 120515Z AUTO 32021G27KT 10SM BKN037 02/M04 A3022 RMK AO2
KRCM 120455Z AUTO 31018G24KT 10SM BKN037 03/M04 A3020 RMK AO2
KRCM 120435Z AUTO 31020G34KT 10SM BKN037 03/M04 A3019 RMK AO2
KRCM 120415Z AUTO 33010G23KT 10SM SCT034 OVC039 05/M02 A3018 RMK AO2
KRCM 120355Z AUTO 33013G24KT 10SM OVC041 05/M02 A3017 RMK AO2
KRCM 120335Z AUTO 33017G29KT 10SM SCT037 OVC047 05/M02 A3015 RMK AO2
KRCM 120315Z AUTO 32018G29KT 10SM SCT035 SCT040 OVC047 06/M01 A3013 RMK AO2
KRCM 120255Z AUTO 32012G22KT 10SM BKN035 OVC041 06/00 A3013 RMK AO2
KRCM 120235Z AUTO 31011G19KT 10SM SCT033 OVC042 06/01 A3012 RMK AO2
KRCM 120215Z AUTO 31012G25KT 10SM SCT036 BKN042 OVC048 06/01 A3011 RMK AO2
KRCM 120155Z AUTO 32013G23KT 10SM SCT039 SCT047 OVC050 07/01 A3010 RMK AO2
KRCM 120135Z AUTO 31018G26KT 10SM SCT041 OVC048 08/00 A3009 RMK AO2
KRCM 120115Z AUTO 30017G25KT 10SM OVC046 08/00 A3007 RMK AO2
KRCM 120055Z AUTO 29015G22KT 10SM OVC050 09/00 A3006 RMK AO2
KRCM 120035Z AUTO 29018G27KT 10SM OVC050 09/00 A3005 RMK AO2
KRCM 120015Z AUTO 31010G21KT 10SM OVC050 09/00 A3004 RMK AO2
KRCM 112355Z AUTO 30013G20KT 10SM OVC060 10/M01 A3003 RMK AO2
KRCM 112335Z AUTO 30016G22KT 10SM OVC060 10/M01 A3003 RMK AO2
KRCM 112315Z AUTO 29013G20KT 10SM OVC060 10/M01 A3002 RMK AO2
KRCM 112255Z AUTO 29010G19KT 10SM SCT060 10/M01 A3002 RMK AO2
KRCM 112235Z AUTO 29017G27KT 10SM CLR 10/M02 A3001 RMK AO2
KRCM 112215Z AUTO 30016G26KT 10SM SCT065 11/M02 A3000 RMK AO2
KRCM 112155Z AUTO 30018G28KT 10SM SCT065 11/M03 A2999 RMK AO2
KRCM 112135Z AUTO 31016G21KT 10SM SCT070 11/M03 A2998 RMK AO2
KRCM 112115Z AUTO 29019G26KT 10SM BKN070 12/M03 A2997 RMK AO2
KRCM 112055Z AUTO 29021G26KT 10SM SCT070 13/M03 A2996 RMK AO2
KRCM 112035Z AUTO 29020G34KT 10SM CLR 13/M04 A2995 RMK AO2
KRCM 112015Z AUTO 30019G28KT 10SM CLR 13/M04 A2994 RMK AO2
KRCM 111955Z AUTO 30019G29KT 10SM CLR 13/M05 A2993 RMK AO2
KRCM 111935Z AUTO 29019G26KT 10SM CLR 13/M05 A2993 RMK AO2
KRCM 111915Z AUTO 28020G32KT 10SM CLR 13/M05 A2993 RMK AO2
KRCM 111855Z AUTO 28015G27KT 10SM CLR 13/M05 A2993 RMK AO2
KRCM 111835Z AUTO 29015G19KT 10SM CLR 12/M06 A2994 RMK AO2
KRCM 111815Z AUTO 30013G24KT 10SM CLR 11/M07 A2995 RMK AO2
KRCM 111755Z AUTO 28011G15KT 254V314 10SM CLR 11/M07 A2995 RMK AO2
KRCM 111735Z AUTO 28010G17KT 10SM CLR 10/M07 A2997 RMK AO2
KRCM 111715Z AUTO 28013G24KT 10SM CLR 10/M07 A2997 RMK AO2
KRCM 111655Z AUTO 29015G24KT 10SM CLR 10/M07 A2997 RMK AO2
KRCM 111635Z AUTO 27011G20KT 10SM CLR 10/M07 A2996 RMK AO2
KRCM 111615Z AUTO 26013G18KT 10SM CLR 09/M06 A2994 RMK AO2
KRCM 111555Z AUTO 24011KT 10SM CLR 08/M06 A2994 RMK AO2
KRCM 111535Z AUTO 24011KT 10SM CLR 06/M06 A2994 RMK AO2
KRCM 111515Z AUTO 24009KT 10SM CLR 05/M06 A2995 RMK AO2
KRCM 111455Z AUTO 24006KT 10SM CLR 04/M06 A2995 RMK AO2
KRCM 111435Z AUTO 24007KT 10SM CLR 03/M06 A2995 RMK AO2
KRCM 111415Z AUTO 21008KT 10SM CLR 03/M06 A2995 RMK AO2
KRCM 111355Z AUTO 23007KT 10SM CLR 03/M05 A2996 RMK AO2
KRCM 111335Z AUTO 19007KT 10SM CLR 02/M05 A2995 RMK AO2
KRCM 111315Z AUTO 19006KT 10SM CLR 01/M06 A2996 RMK AO2
KRCM 111255Z AUTO 17004KT 10SM CLR 01/M05 A2997 RMK AO2
KRCM 111235Z AUTO 22005KT 10SM CLR 01/M05 A2998 RMK AO2
KRCM 111215Z AUTO 20008KT 10SM CLR 01/M05 A2998 RMK AO2
KRCM 111155Z AUTO 19007KT 10SM CLR 01/M05 A2998 RMK AO2
KRCM 111135Z AUTO 20006KT 10SM CLR 01/M05 A2999 RMK AO2
KRCM 111115Z AUTO 20007KT 10SM CLR 01/M05 A3000 RMK AO2
KRCM 111055Z AUTO 19005KT 10SM CLR 01/M05 A3000 RMK AO2
KRCM 111035Z AUTO 19007KT 10SM CLR 01/M05 A3000 RMK AO2
KRCM 111015Z AUTO 16006KT 10SM CLR 00/M05 A3001 RMK AO2
KRCM 110955Z AUTO 16006KT 10SM CLR 00/M05 A3003 RMK AO2
KRCM 110935Z AUTO 16004KT 10SM CLR 01/M04 A3005 RMK AO2
KRCM 110915Z AUTO 18006KT 10SM CLR 01/M04 A3006 RMK AO2
KRCM 110855Z AUTO 17006KT 10SM CLR 01/M05 A3006 RMK AO2
KRCM 110835Z AUTO 18007KT 10SM CLR 00/M05 A3007 RMK AO2
KRCM 110815Z AUTO 18006KT 10SM CLR M01/M05 A3008 RMK AO2
KRCM 110755Z AUTO 18004KT 10SM CLR M01/M04 A3009 RMK AO2
KRCM 110735Z AUTO 17004KT 10SM CLR 00/M04 A3010 RMK AO2
KRCM 110715Z AUTO 18005KT 10SM CLR M01/M04 A3011 RMK AO2
KRCM 110655Z AUTO 19003KT 10SM CLR 00/M03 A3011 RMK AO2
KRCM 110635Z AUTO 20004KT 10SM CLR 00/M05 A3012 RMK AO2
KRCM 110615Z AUTO 20005KT 10SM CLR 00/M04 A3013 RMK AO2
KRCM 110555Z AUTO 19005KT 10SM CLR 00/M03 A3013 RMK AO2
KRCM 110535Z AUTO 20004KT 10SM CLR 00/M04 A3014 RMK AO2
KRCM 110515Z AUTO 19004KT 10SM CLR 00/M03 A3014 RMK AO2
KRCM 110455Z AUTO 16003KT 10SM CLR 01/M04 A3015 RMK AO2
KRCM 110435Z AUTO 19004KT 10SM CLR 01/M03 A3015 RMK AO2
KRCM 110415Z AUTO 18004KT 10SM CLR 01/M03 A3015 RMK AO2
KRCM 110355Z AUTO 18004KT 10SM CLR 01/M04 A3016 RMK AO2
KRCM 110335Z AUTO 17004KT 10SM CLR 01/M03 A3015 RMK AO2
KRCM 110315Z AUTO 16004KT 10SM CLR 02/M03 A3016 RMK AO2
KRCM 110255Z AUTO 00000KT 10SM CLR 04/M04 A3015 RMK AO2
KRCM 110235Z AUTO 00000KT 10SM CLR 04/M03 A3016 RMK AO2
KRCM 110215Z AUTO 00000KT 10SM CLR 05/M04 A3015 RMK AO2
KRCM 110155Z AUTO 21004KT 10SM CLR 05/M03 A3014 RMK AO2
KRCM 110135Z AUTO 00000KT 10SM CLR 06/M03 A3014 RMK AO2
KRCM 110115Z AUTO 20003KT 10SM CLR 07/M03 A3014 RMK AO2
KRCM 110055Z AUTO 00000KT 10SM CLR 07/M03 A3015 RMK AO2
KRCM 110035Z AUTO 22003KT 10SM CLR 06/M03 A3014 RMK AO2
KRCM 110015Z AUTO 00000KT 10SM CLR 09/M04 A3013 RMK AO2
KRCM 102355Z AUTO 00000KT 10SM CLR 10/M04 A3013 RMK AO2
KRCM 102335Z AUTO 26003KT 10SM CLR 10/M03 A3013 RMK AO2
KRCM 102315Z AUTO 26004KT 10SM CLR 10/M04 A3012 RMK AO2
KRCM 102255Z AUTO 28003KT 10SM CLR 11/M03 A3012 RMK AO2
KRCM 102235Z AUTO 26006KT 10SM CLR 12/M03 A3011 RMK AO2
KRCM 102215Z AUTO 27007KT 10SM CLR 12/M03 A3010 RMK AO2